sensor_id;sensor_type;location;lat;lon;timestamp;temperature;humidity
14737;DHT22;7459;53.590;10.062;2024-03-29T00:02:04;8.70;99.90
14737;DHT22;7459;53.590;10.062;2024-03-29T00:04:30;8.70;99.90
14737;DHT22;7459;53.590;10.062;2024-03-29T00:06:56;8.70;99.90
14737;DHT22;7459;53.590;10.062;2024-03-29T00:09:21;8.70;99.90
14737;DHT22;7459;53.590;10.062;2024-03-29T00:11:47;8.70;99.90
14737;DHT22;7459;53.590;10.062;2024-03-29T00:14:13;8.70;99.90
14737;DHT22;7459;53.590;10.062;2024-03-29T00:16:38;8.70;99.90
14737;DHT22;7459;53.590;10.062;2024-03-29T00:19:04;8.70;99.90
14737;DHT22;7459;53.590;10.062;2024-03-29T00:21:30;8.70;99.90
14737;DHT22;7459;53.590;10.062;2024-03-29T00:23:56;8.70;99.90
14737;DHT22;7459;53.590;10.062;2024-03-29T00:26:22;8.70;99.90
14737;DHT22;7459;53.590;10.062;2024-03-29T00:28:47;8.80;99.90
14737;DHT22;7459;53.590;10.062;2024-03-29T00:31:13;8.70;99.90
14737;DHT22;7459;53.590;10.062;2024-03-29T00:33:39;8.70;99.90
14737;DHT22;7459;53.590;10.062;2024-03-29T00:36:05;8.70;99.90
14737;DHT22;7459;53.590;10.062;2024-03-29T00:38:30;8.70;99.90
14737;DHT22;7459;53.590;10.062;2024-03-29T00:40:56;8.70;99.90
14737;DHT22;7459;53.590;10.062;2024-03-29T00:43:22;8.60;99.90
14737;DHT22;7459;53.590;10.062;2024-03-29T00:45:47;8.60;99.90
14737;DHT22;7459;53.590;10.062;2024-03-29T00:48:13;8.60;99.90
14737;DHT22;7459;53.590;10.062;2024-03-29T00:50:40;8.60;99.90
14737;DHT22;7459;53.590;10.062;2024-03-29T00:53:06;8.60;99.90
14737;DHT22;7459;53.590;10.062;2024-03-29T00:55:32;8.50;99.90
14737;DHT22;7459;53.590;10.062;2024-03-29T00:57:58;8.60;99.90
14737;DHT22;7459;53.590;10.062;2024-03-29T01:00:23;8.60;99.90
14737;DHT22;7459;53.590;10.062;2024-03-29T01:02:49;8.60;99.90
14737;DHT22;7459;53.590;10.062;2024-03-29T01:05:15;8.50;99.90
14737;DHT22;7459;53.590;10.062;2024-03-29T01:07:41;8.60;99.90
14737;DHT22;7459;53.590;10.062;2024-03-29T01:10:08;8.50;99.90
14737;DHT22;7459;53.590;10.062;2024-03-29T01:12:36;8.40;99.90
14737;DHT22;7459;53.590;10.062;2024-03-29T01:15:02;8.40;99.90
14737;DHT22;7459;53.590;10.062;2024-03-29T01:17:29;8.50;99.90
14737;DHT22;7459;53.590;10.062;2024-03-29T01:19:54;8.40;99.90
14737;DHT22;7459;53.590;10.062;2024-03-29T01:22:20;8.40;99.90
14737;DHT22;7459;53.590;10.062;2024-03-29T01:24:46;8.30;99.90
14737;DHT22;7459;53.590;10.062;2024-03-29T01:27:12;8.30;99.90
14737;DHT22;7459;53.590;10.062;2024-03-29T01:29:37;8.30;99.90
14737;DHT22;7459;53.590;10.062;2024-03-29T01:32:04;8.30;99.90
14737;DHT22;7459;53.590;10.062;2024-03-29T01:34:30;8.30;99.90
14737;DHT22;7459;53.590;10.062;2024-03-29T01:36:56;8.20;99.90
14737;DHT22;7459;53.590;10.062;2024-03-29T01:39:21;8.20;99.90
14737;DHT22;7459;53.590;10.062;2024-03-29T01:41:52;8.20;99.90
14737;DHT22;7459;53.590;10.062;2024-03-29T01:44:18;8.20;99.90
14737;DHT22;7459;53.590;10.062;2024-03-29T01:46:44;8.20;99.90
14737;DHT22;7459;53.590;10.062;2024-03-29T01:49:12;8.20;99.90
14737;DHT22;7459;53.590;10.062;2024-03-29T01:51:38;8.10;99.90
14737;DHT22;7459;53.590;10.062;2024-03-29T01:54:08;8.10;99.90
14737;DHT22;7459;53.590;10.062;2024-03-29T01:56:35;8.10;99.90
14737;DHT22;7459;53.590;10.062;2024-03-29T01:59:03;8.10;99.90
14737;DHT22;7459;53.590;10.062;2024-03-29T02:01:30;8.20;99.90
14737;DHT22;7459;53.590;10.062;2024-03-29T02:03:56;8.10;99.90
14737;DHT22;7459;53.590;10.062;2024-03-29T02:06:23;8.10;99.90
14737;DHT22;7459;53.590;10.062;2024-03-29T02:08:52;8.10;99.90
14737;DHT22;7459;53.590;10.062;2024-03-29T02:11:19;8.10;99.90
14737;DHT22;7459;53.590;10.062;2024-03-29T02:13:46;8.20;99.90
14737;DHT22;7459;53.590;10.062;2024-03-29T02:16:12;8.10;99.90
14737;DHT22;7459;53.590;10.062;2024-03-29T02:18:38;8.10;99.90
14737;DHT22;7459;53.590;10.062;2024-03-29T02:21:04;8.10;99.90
14737;DHT22;7459;53.590;10.062;2024-03-29T02:23:32;8.00;99.90
14737;DHT22;7459;53.590;10.062;2024-03-29T02:25:58;8.00;99.90
14737;DHT22;7459;53.590;10.062;2024-03-29T02:28:24;8.00;99.90
14737;DHT22;7459;53.590;10.062;2024-03-29T02:30:50;8.00;99.90
14737;DHT22;7459;53.590;10.062;2024-03-29T02:33:16;8.00;99.90
14737;DHT22;7459;53.590;10.062;2024-03-29T02:35:42;8.00;99.90
14737;DHT22;7459;53.590;10.062;2024-03-29T02:38:08;8.00;99.90
14737;DHT22;7459;53.590;10.062;2024-03-29T02:40:33;8.00;99.90
14737;DHT22;7459;53.590;10.062;2024-03-29T02:42:59;8.00;99.90
14737;DHT22;7459;53.590;10.062;2024-03-29T02:45:24;7.90;99.90
14737;DHT22;7459;53.590;10.062;2024-03-29T02:47:50;8.00;99.90
14737;DHT22;7459;53.590;10.062;2024-03-29T02:50:16;7.90;99.90
14737;DHT22;7459;53.590;10.062;2024-03-29T02:52:42;8.00;99.90
14737;DHT22;7459;53.590;10.062;2024-03-29T02:55:08;7.90;99.90
14737;DHT22;7459;53.590;10.062;2024-03-29T02:57:36;7.90;99.90
14737;DHT22;7459;53.590;10.062;2024-03-29T03:00:04;7.90;99.90
14737;DHT22;7459;53.590;10.062;2024-03-29T03:05:29;7.90;99.90
14737;DHT22;7459;53.590;10.062;2024-03-29T03:07:55;7.90;99.90
14737;DHT22;7459;53.590;10.062;2024-03-29T03:10:48;7.90;99.90
14737;DHT22;7459;53.590;10.062;2024-03-29T03:13:27;7.80;99.90
14737;DHT22;7459;53.590;10.062;2024-03-29T03:15:53;7.80;99.90
14737;DHT22;7459;53.590;10.062;2024-03-29T03:18:19;7.80;99.90
14737;DHT22;7459;53.590;10.062;2024-03-29T03:20:55;7.80;99.90
14737;DHT22;7459;53.590;10.062;2024-03-29T03:23:22;7.80;99.90
14737;DHT22;7459;53.590;10.062;2024-03-29T03:26:01;7.80;99.90
14737;DHT22;7459;53.590;10.062;2024-03-29T03:28:31;7.80;99.90
14737;DHT22;7459;53.590;10.062;2024-03-29T03:30:57;7.80;99.90
14737;DHT22;7459;53.590;10.062;2024-03-29T03:33:23;7.70;99.90
14737;DHT22;7459;53.590;10.062;2024-03-29T03:35:49;7.70;99.90
14737;DHT22;7459;53.590;10.062;2024-03-29T03:38:16;7.80;99.90
14737;DHT22;7459;53.590;10.062;2024-03-29T03:40:41;7.70;99.90
14737;DHT22;7459;53.590;10.062;2024-03-29T03:43:08;7.70;99.90
14737;DHT22;7459;53.590;10.062;2024-03-29T03:45:38;7.70;99.90
14737;DHT22;7459;53.590;10.062;2024-03-29T03:48:05;7.60;99.90
14737;DHT22;7459;53.590;10.062;2024-03-29T03:50:33;7.60;99.90
14737;DHT22;7459;53.590;10.062;2024-03-29T03:52:59;7.60;99.90
14737;DHT22;7459;53.590;10.062;2024-03-29T03:55:25;7.50;99.90
14737;DHT22;7459;53.590;10.062;2024-03-29T03:57:51;7.50;99.90
14737;DHT22;7459;53.590;10.062;2024-03-29T04:00:18;7.40;99.90
14737;DHT22;7459;53.590;10.062;2024-03-29T04:02:51;7.50;99.90
14737;DHT22;7459;53.590;10.062;2024-03-29T04:05:20;7.40;99.90
14737;DHT22;7459;53.590;10.062;2024-03-29T04:07:46;7.40;99.90
14737;DHT22;7459;53.590;10.062;2024-03-29T04:10:12;7.40;99.90
14737;DHT22;7459;53.590;10.062;2024-03-29T04:12:38;7.40;99.90
14737;DHT22;7459;53.590;10.062;2024-03-29T04:15:05;7.30;99.90
14737;DHT22;7459;53.590;10.062;2024-03-29T04:17:31;7.40;99.90
14737;DHT22;7459;53.590;10.062;2024-03-29T04:19:58;7.40;99.90
14737;DHT22;7459;53.590;10.062;2024-03-29T04:22:24;7.40;99.90
14737;DHT22;7459;53.590;10.062;2024-03-29T04:24:52;7.40;99.90
14737;DHT22;7459;53.590;10.062;2024-03-29T04:27:18;7.40;99.90
14737;DHT22;7459;53.590;10.062;2024-03-29T04:29:43;7.40;99.90
14737;DHT22;7459;53.590;10.062;2024-03-29T04:32:09;7.40;99.90
14737;DHT22;7459;53.590;10.062;2024-03-29T04:34:35;7.50;99.90
14737;DHT22;7459;53.590;10.062;2024-03-29T04:37:01;7.50;99.90
14737;DHT22;7459;53.590;10.062;2024-03-29T04:39:27;7.50;99.90
14737;DHT22;7459;53.590;10.062;2024-03-29T04:41:53;7.50;99.90
14737;DHT22;7459;53.590;10.062;2024-03-29T04:44:26;7.50;99.90
14737;DHT22;7459;53.590;10.062;2024-03-29T04:46:52;7.50;99.90
14737;DHT22;7459;53.590;10.062;2024-03-29T04:49:19;7.40;99.90
14737;DHT22;7459;53.590;10.062;2024-03-29T04:51:49;7.40;99.90
14737;DHT22;7459;53.590;10.062;2024-03-29T04:54:15;7.40;99.90
14737;DHT22;7459;53.590;10.062;2024-03-29T04:56:42;7.40;99.90
14737;DHT22;7459;53.590;10.062;2024-03-29T04:59:08;7.40;99.90
14737;DHT22;7459;53.590;10.062;2024-03-29T05:01:35;7.40;99.90
14737;DHT22;7459;53.590;10.062;2024-03-29T05:04:01;7.30;99.90
14737;DHT22;7459;53.590;10.062;2024-03-29T05:06:29;7.40;99.90
14737;DHT22;7459;53.590;10.062;2024-03-29T05:08:54;7.40;99.90
14737;DHT22;7459;53.590;10.062;2024-03-29T05:11:20;7.30;99.90
14737;DHT22;7459;53.590;10.062;2024-03-29T05:13:47;7.30;99.90
14737;DHT22;7459;53.590;10.062;2024-03-29T05:16:13;7.40;99.90
14737;DHT22;7459;53.590;10.062;2024-03-29T05:18:39;7.40;99.90
14737;DHT22;7459;53.590;10.062;2024-03-29T05:21:04;7.40;99.90
14737;DHT22;7459;53.590;10.062;2024-03-29T05:23:30;7.40;99.90
14737;DHT22;7459;53.590;10.062;2024-03-29T05:25:56;7.40;99.90
14737;DHT22;7459;53.590;10.062;2024-03-29T05:28:21;7.50;99.90
14737;DHT22;7459;53.590;10.062;2024-03-29T05:30:47;7.40;99.90
14737;DHT22;7459;53.590;10.062;2024-03-29T05:33:13;7.40;99.90
14737;DHT22;7459;53.590;10.062;2024-03-29T05:35:39;7.40;99.90
14737;DHT22;7459;53.590;10.062;2024-03-29T05:38:04;7.40;99.90
14737;DHT22;7459;53.590;10.062;2024-03-29T05:40:30;7.40;99.90
14737;DHT22;7459;53.590;10.062;2024-03-29T05:42:56;7.40;99.90
14737;DHT22;7459;53.590;10.062;2024-03-29T05:45:28;7.40;99.90
14737;DHT22;7459;53.590;10.062;2024-03-29T05:47:56;7.40;99.90
14737;DHT22;7459;53.590;10.062;2024-03-29T05:50:23;7.50;99.90
14737;DHT22;7459;53.590;10.062;2024-03-29T05:52:51;7.50;99.90
14737;DHT22;7459;53.590;10.062;2024-03-29T05:55:17;7.50;99.90
14737;DHT22;7459;53.590;10.062;2024-03-29T05:57:43;7.50;99.90
14737;DHT22;7459;53.590;10.062;2024-03-29T06:00:11;7.50;99.90
14737;DHT22;7459;53.590;10.062;2024-03-29T06:02:39;7.50;99.90
14737;DHT22;7459;53.590;10.062;2024-03-29T06:05:06;7.60;99.90
14737;DHT22;7459;53.590;10.062;2024-03-29T06:07:32;7.60;99.90
14737;DHT22;7459;53.590;10.062;2024-03-29T06:09:59;7.60;99.90
14737;DHT22;7459;53.590;10.062;2024-03-29T06:12:26;7.60;99.90
14737;DHT22;7459;53.590;10.062;2024-03-29T06:14:52;7.60;99.90
14737;DHT22;7459;53.590;10.062;2024-03-29T06:17:36;7.60;99.90
14737;DHT22;7459;53.590;10.062;2024-03-29T06:20:03;7.70;99.90
14737;DHT22;7459;53.590;10.062;2024-03-29T06:22:29;7.70;99.90
14737;DHT22;7459;53.590;10.062;2024-03-29T06:24:56;7.60;99.90
14737;DHT22;7459;53.590;10.062;2024-03-29T06:27:33;7.70;99.90
14737;DHT22;7459;53.590;10.062;2024-03-29T06:29:59;7.70;99.90
14737;DHT22;7459;53.590;10.062;2024-03-29T06:32:26;7.70;99.90
14737;DHT22;7459;53.590;10.062;2024-03-29T06:34:51;7.80;99.90
14737;DHT22;7459;53.590;10.062;2024-03-29T06:37:17;7.80;99.90
14737;DHT22;7459;53.590;10.062;2024-03-29T06:39:43;7.80;99.90
14737;DHT22;7459;53.590;10.062;2024-03-29T06:42:09;7.80;99.90
14737;DHT22;7459;53.590;10.062;2024-03-29T06:44:35;7.80;99.90
14737;DHT22;7459;53.590;10.062;2024-03-29T06:47:02;7.80;99.90
14737;DHT22;7459;53.590;10.062;2024-03-29T06:49:28;7.80;99.90
14737;DHT22;7459;53.590;10.062;2024-03-29T06:51:54;7.90;99.90
14737;DHT22;7459;53.590;10.062;2024-03-29T06:54:21;7.90;99.90
14737;DHT22;7459;53.590;10.062;2024-03-29T06:56:51;7.90;99.90
14737;DHT22;7459;53.590;10.062;2024-03-29T06:59:18;7.90;99.90
14737;DHT22;7459;53.590;10.062;2024-03-29T07:01:44;7.90;99.90
14737;DHT22;7459;53.590;10.062;2024-03-29T07:04:10;8.00;99.90
14737;DHT22;7459;53.590;10.062;2024-03-29T07:06:35;8.00;99.90
14737;DHT22;7459;53.590;10.062;2024-03-29T07:09:03;8.00;99.90
14737;DHT22;7459;53.590;10.062;2024-03-29T07:11:29;8.00;99.90
14737;DHT22;7459;53.590;10.062;2024-03-29T07:13:56;8.00;99.90
14737;DHT22;7459;53.590;10.062;2024-03-29T07:16:22;8.00;99.90
14737;DHT22;7459;53.590;10.062;2024-03-29T07:18:47;8.10;99.90
14737;DHT22;7459;53.590;10.062;2024-03-29T07:21:13;8.10;99.90
14737;DHT22;7459;53.590;10.062;2024-03-29T07:23:39;8.10;99.90
14737;DHT22;7459;53.590;10.062;2024-03-29T07:26:05;8.20;99.90
14737;DHT22;7459;53.590;10.062;2024-03-29T07:28:31;8.20;99.90
14737;DHT22;7459;53.590;10.062;2024-03-29T07:30:57;8.20;99.90
14737;DHT22;7459;53.590;10.062;2024-03-29T07:33:24;8.20;99.90
14737;DHT22;7459;53.590;10.062;2024-03-29T07:35:54;8.20;99.90
14737;DHT22;7459;53.590;10.062;2024-03-29T07:38:20;8.30;99.90
14737;DHT22;7459;53.590;10.062;2024-03-29T07:40:47;8.30;99.90
14737;DHT22;7459;53.590;10.062;2024-03-29T07:43:13;8.30;99.90
14737;DHT22;7459;53.590;10.062;2024-03-29T07:45:42;8.40;99.90
14737;DHT22;7459;53.590;10.062;2024-03-29T07:48:13;8.40;99.90
14737;DHT22;7459;53.590;10.062;2024-03-29T07:50:43;8.40;99.90
14737;DHT22;7459;53.590;10.062;2024-03-29T07:53:10;8.50;99.90
14737;DHT22;7459;53.590;10.062;2024-03-29T07:55:38;8.50;99.90
14737;DHT22;7459;53.590;10.062;2024-03-29T07:58:05;8.50;99.90
14737;DHT22;7459;53.590;10.062;2024-03-29T08:00:32;8.50;99.90
14737;DHT22;7459;53.590;10.062;2024-03-29T08:02:58;8.60;99.90
14737;DHT22;7459;53.590;10.062;2024-03-29T08:05:24;8.60;99.90
14737;DHT22;7459;53.590;10.062;2024-03-29T08:07:50;8.60;99.90
14737;DHT22;7459;53.590;10.062;2024-03-29T08:10:16;8.60;99.90
14737;DHT22;7459;53.590;10.062;2024-03-29T08:12:41;8.60;99.90
14737;DHT22;7459;53.590;10.062;2024-03-29T08:15:07;8.60;99.90
14737;DHT22;7459;53.590;10.062;2024-03-29T08:17:36;8.60;99.90
14737;DHT22;7459;53.590;10.062;2024-03-29T08:20:03;8.60;99.90
14737;DHT22;7459;53.590;10.062;2024-03-29T08:22:29;8.60;99.90
14737;DHT22;7459;53.590;10.062;2024-03-29T08:24:58;8.70;99.90
14737;DHT22;7459;53.590;10.062;2024-03-29T08:27:25;8.70;99.90
14737;DHT22;7459;53.590;10.062;2024-03-29T08:29:52;8.70;99.90
14737;DHT22;7459;53.590;10.062;2024-03-29T08:32:17;8.80;99.90
14737;DHT22;7459;53.590;10.062;2024-03-29T08:34:44;8.80;99.90
14737;DHT22;7459;53.590;10.062;2024-03-29T08:37:09;8.80;99.90
14737;DHT22;7459;53.590;10.062;2024-03-29T08:39:35;8.80;99.90
14737;DHT22;7459;53.590;10.062;2024-03-29T08:42:03;8.80;99.90
14737;DHT22;7459;53.590;10.062;2024-03-29T08:44:34;8.80;99.90
14737;DHT22;7459;53.590;10.062;2024-03-29T08:47:01;8.80;99.90
14737;DHT22;7459;53.590;10.062;2024-03-29T08:49:27;8.80;99.90
14737;DHT22;7459;53.590;10.062;2024-03-29T08:51:53;8.80;99.90
14737;DHT22;7459;53.590;10.062;2024-03-29T08:54:19;8.90;99.90
14737;DHT22;7459;53.590;10.062;2024-03-29T08:56:44;8.90;99.90
14737;DHT22;7459;53.590;10.062;2024-03-29T08:59:10;8.90;99.90
14737;DHT22;7459;53.590;10.062;2024-03-29T09:01:41;8.90;99.90
14737;DHT22;7459;53.590;10.062;2024-03-29T09:04:07;9.00;99.90
14737;DHT22;7459;53.590;10.062;2024-03-29T09:06:36;9.00;99.90
14737;DHT22;7459;53.590;10.062;2024-03-29T09:09:06;9.00;99.90
14737;DHT22;7459;53.590;10.062;2024-03-29T09:11:32;9.00;99.90
14737;DHT22;7459;53.590;10.062;2024-03-29T09:13:58;9.10;99.90
14737;DHT22;7459;53.590;10.062;2024-03-29T09:16:25;9.00;99.90
14737;DHT22;7459;53.590;10.062;2024-03-29T09:18:51;9.10;99.90
14737;DHT22;7459;53.590;10.062;2024-03-29T09:21:19;9.10;99.90
14737;DHT22;7459;53.590;10.062;2024-03-29T09:23:45;9.10;99.90
14737;DHT22;7459;53.590;10.062;2024-03-29T09:26:11;9.00;99.90
14737;DHT22;7459;53.590;10.062;2024-03-29T09:28:39;9.10;99.90
14737;DHT22;7459;53.590;10.062;2024-03-29T09:31:05;9.10;99.90
14737;DHT22;7459;53.590;10.062;2024-03-29T09:33:31;9.10;99.90
14737;DHT22;7459;53.590;10.062;2024-03-29T09:35:57;9.10;99.90
14737;DHT22;7459;53.590;10.062;2024-03-29T09:38:24;9.10;99.90
14737;DHT22;7459;53.590;10.062;2024-03-29T09:43:42;9.10;99.90
14737;DHT22;7459;53.590;10.062;2024-03-29T09:46:10;9.10;99.90
14737;DHT22;7459;53.590;10.062;2024-03-29T09:48:39;9.10;99.90
14737;DHT22;7459;53.590;10.062;2024-03-29T09:51:06;9.10;99.90
14737;DHT22;7459;53.590;10.062;2024-03-29T09:53:37;9.20;99.90
14737;DHT22;7459;53.590;10.062;2024-03-29T09:56:04;9.10;99.90
14737;DHT22;7459;53.590;10.062;2024-03-29T09:58:31;9.10;99.90
14737;DHT22;7459;53.590;10.062;2024-03-29T10:00:57;9.10;99.90
14737;DHT22;7459;53.590;10.062;2024-03-29T10:03:24;9.10;99.90
14737;DHT22;7459;53.590;10.062;2024-03-29T10:05:58;9.10;99.90
14737;DHT22;7459;53.590;10.062;2024-03-29T10:08:28;9.10;99.90
14737;DHT22;7459;53.590;10.062;2024-03-29T10:10:59;9.10;99.90
14737;DHT22;7459;53.590;10.062;2024-03-29T10:13:25;9.10;99.90
14737;DHT22;7459;53.590;10.062;2024-03-29T10:15:52;9.00;99.90
14737;DHT22;7459;53.590;10.062;2024-03-29T10:18:30;9.10;99.90
14737;DHT22;7459;53.590;10.062;2024-03-29T10:21:06;9.10;99.90
14737;DHT22;7459;53.590;10.062;2024-03-29T10:23:33;9.10;99.90
14737;DHT22;7459;53.590;10.062;2024-03-29T10:26:01;9.10;99.90
14737;DHT22;7459;53.590;10.062;2024-03-29T10:28:33;9.10;99.90
14737;DHT22;7459;53.590;10.062;2024-03-29T10:31:01;9.10;99.90
14737;DHT22;7459;53.590;10.062;2024-03-29T10:33:29;9.10;99.90
14737;DHT22;7459;53.590;10.062;2024-03-29T10:35:59;9.10;99.90
14737;DHT22;7459;53.590;10.062;2024-03-29T10:38:26;9.10;99.90
14737;DHT22;7459;53.590;10.062;2024-03-29T10:40:53;9.10;99.90
14737;DHT22;7459;53.590;10.062;2024-03-29T10:43:20;9.10;99.90
14737;DHT22;7459;53.590;10.062;2024-03-29T10:45:49;9.20;99.90
14737;DHT22;7459;53.590;10.062;2024-03-29T10:48:21;9.10;99.90
14737;DHT22;7459;53.590;10.062;2024-03-29T10:50:48;9.10;99.90
14737;DHT22;7459;53.590;10.062;2024-03-29T10:53:16;9.10;99.90
14737;DHT22;7459;53.590;10.062;2024-03-29T10:55:42;9.10;99.90
14737;DHT22;7459;53.590;10.062;2024-03-29T10:58:11;9.10;99.90
14737;DHT22;7459;53.590;10.062;2024-03-29T11:00:47;9.10;99.90
14737;DHT22;7459;53.590;10.062;2024-03-29T11:03:38;9.10;99.90
14737;DHT22;7459;53.590;10.062;2024-03-29T11:06:06;9.20;99.90
14737;DHT22;7459;53.590;10.062;2024-03-29T11:08:34;9.20;99.90
14737;DHT22;7459;53.590;10.062;2024-03-29T11:11:04;9.20;99.90
14737;DHT22;7459;53.590;10.062;2024-03-29T11:16:09;9.20;99.90
14737;DHT22;7459;53.590;10.062;2024-03-29T11:18:37;9.20;99.90
14737;DHT22;7459;53.590;10.062;2024-03-29T11:21:03;9.20;99.90
14737;DHT22;7459;53.590;10.062;2024-03-29T11:23:32;9.30;99.90
14737;DHT22;7459;53.590;10.062;2024-03-29T11:25:58;9.30;99.90
14737;DHT22;7459;53.590;10.062;2024-03-29T11:28:30;9.20;99.90
14737;DHT22;7459;53.590;10.062;2024-03-29T11:31:07;9.30;99.90
14737;DHT22;7459;53.590;10.062;2024-03-29T11:33:35;9.30;99.90
14737;DHT22;7459;53.590;10.062;2024-03-29T11:38:51;9.30;99.90
14737;DHT22;7459;53.590;10.062;2024-03-29T11:43:52;9.40;99.90
14737;DHT22;7459;53.590;10.062;2024-03-29T11:46:18;9.50;99.90
14737;DHT22;7459;53.590;10.062;2024-03-29T11:48:45;9.50;99.90
14737;DHT22;7459;53.590;10.062;2024-03-29T11:51:14;9.50;99.90
14737;DHT22;7459;53.590;10.062;2024-03-29T11:53:41;9.50;99.90
14737;DHT22;7459;53.590;10.062;2024-03-29T11:56:07;9.60;99.90
14737;DHT22;7459;53.590;10.062;2024-03-29T11:58:34;9.60;99.90
14737;DHT22;7459;53.590;10.062;2024-03-29T12:01:01;9.60;99.90
14737;DHT22;7459;53.590;10.062;2024-03-29T12:03:30;9.60;99.90
14737;DHT22;7459;53.590;10.062;2024-03-29T12:06:00;9.60;99.90
14737;DHT22;7459;53.590;10.062;2024-03-29T12:08:31;9.70;99.90
14737;DHT22;7459;53.590;10.062;2024-03-29T12:10:58;9.70;99.90
14737;DHT22;7459;53.590;10.062;2024-03-29T12:13:24;9.70;99.90
14737;DHT22;7459;53.590;10.062;2024-03-29T12:15:50;9.70;99.90
14737;DHT22;7459;53.590;10.062;2024-03-29T12:18:16;9.80;99.90
14737;DHT22;7459;53.590;10.062;2024-03-29T12:20:45;9.80;99.90
14737;DHT22;7459;53.590;10.062;2024-03-29T12:23:16;9.80;99.90
14737;DHT22;7459;53.590;10.062;2024-03-29T12:25:43;9.90;99.90
14737;DHT22;7459;53.590;10.062;2024-03-29T12:28:12;9.90;99.90
14737;DHT22;7459;53.590;10.062;2024-03-29T12:30:44;9.90;99.90
14737;DHT22;7459;53.590;10.062;2024-03-29T12:33:16;9.90;99.90
14737;DHT22;7459;53.590;10.062;2024-03-29T12:35:46;9.80;99.90
14737;DHT22;7459;53.590;10.062;2024-03-29T12:38:16;9.90;99.90
14737;DHT22;7459;53.590;10.062;2024-03-29T12:40:45;9.90;99.90
14737;DHT22;7459;53.590;10.062;2024-03-29T12:43:14;10.00;99.90
14737;DHT22;7459;53.590;10.062;2024-03-29T12:45:42;10.00;99.90
14737;DHT22;7459;53.590;10.062;2024-03-29T12:48:12;10.00;99.90
14737;DHT22;7459;53.590;10.062;2024-03-29T12:50:41;10.00;99.90
14737;DHT22;7459;53.590;10.062;2024-03-29T12:53:09;10.00;99.90
14737;DHT22;7459;53.590;10.062;2024-03-29T12:55:37;10.00;99.90
14737;DHT22;7459;53.590;10.062;2024-03-29T12:58:09;10.00;99.90
14737;DHT22;7459;53.590;10.062;2024-03-29T13:00:37;10.00;99.90
14737;DHT22;7459;53.590;10.062;2024-03-29T13:03:03;10.00;99.90
14737;DHT22;7459;53.590;10.062;2024-03-29T13:05:29;10.10;99.90
14737;DHT22;7459;53.590;10.062;2024-03-29T13:08:02;10.20;99.90
14737;DHT22;7459;53.590;10.062;2024-03-29T13:10:29;10.20;99.90
14737;DHT22;7459;53.590;10.062;2024-03-29T13:12:55;10.30;99.90
14737;DHT22;7459;53.590;10.062;2024-03-29T13:15:24;10.30;99.90
14737;DHT22;7459;53.590;10.062;2024-03-29T13:17:52;10.30;99.90
14737;DHT22;7459;53.590;10.062;2024-03-29T13:20:20;10.30;99.90
14737;DHT22;7459;53.590;10.062;2024-03-29T13:22:48;10.30;99.90
14737;DHT22;7459;53.590;10.062;2024-03-29T13:25:19;10.20;99.90
14737;DHT22;7459;53.590;10.062;2024-03-29T13:27:47;10.30;99.90
14737;DHT22;7459;53.590;10.062;2024-03-29T13:30:14;10.20;99.90
14737;DHT22;7459;53.590;10.062;2024-03-29T13:32:41;10.20;99.90
14737;DHT22;7459;53.590;10.062;2024-03-29T13:35:11;10.30;99.90
14737;DHT22;7459;53.590;10.062;2024-03-29T13:37:41;10.30;99.90
14737;DHT22;7459;53.590;10.062;2024-03-29T13:40:15;10.30;99.90
14737;DHT22;7459;53.590;10.062;2024-03-29T13:42:41;10.40;99.90
14737;DHT22;7459;53.590;10.062;2024-03-29T13:45:08;10.40;99.90
14737;DHT22;7459;53.590;10.062;2024-03-29T13:47:39;10.40;99.90
14737;DHT22;7459;53.590;10.062;2024-03-29T13:50:07;10.40;99.90
14737;DHT22;7459;53.590;10.062;2024-03-29T13:52:34;10.40;99.90
14737;DHT22;7459;53.590;10.062;2024-03-29T13:55:00;10.40;99.90
14737;DHT22;7459;53.590;10.062;2024-03-29T13:57:26;10.40;99.90
14737;DHT22;7459;53.590;10.062;2024-03-29T13:59:52;10.40;99.90
14737;DHT22;7459;53.590;10.062;2024-03-29T14:02:19;10.40;99.90
14737;DHT22;7459;53.590;10.062;2024-03-29T14:04:46;10.40;99.90
14737;DHT22;7459;53.590;10.062;2024-03-29T14:07:14;10.50;99.90
14737;DHT22;7459;53.590;10.062;2024-03-29T14:09:44;10.50;99.90
14737;DHT22;7459;53.590;10.062;2024-03-29T14:12:10;10.50;99.90
14737;DHT22;7459;53.590;10.062;2024-03-29T14:14:36;10.60;99.90
14737;DHT22;7459;53.590;10.062;2024-03-29T14:17:03;10.70;99.90
14737;DHT22;7459;53.590;10.062;2024-03-29T14:19:38;10.70;99.90
14737;DHT22;7459;53.590;10.062;2024-03-29T14:22:05;10.70;99.90
14737;DHT22;7459;53.590;10.062;2024-03-29T14:24:32;10.70;99.90
14737;DHT22;7459;53.590;10.062;2024-03-29T14:27:04;10.70;99.90
14737;DHT22;7459;53.590;10.062;2024-03-29T14:29:31;10.80;99.90
14737;DHT22;7459;53.590;10.062;2024-03-29T14:31:57;10.80;99.90
14737;DHT22;7459;53.590;10.062;2024-03-29T14:34:23;10.90;99.90
14737;DHT22;7459;53.590;10.062;2024-03-29T14:36:50;10.90;99.90
14737;DHT22;7459;53.590;10.062;2024-03-29T14:39:16;11.00;99.90
14737;DHT22;7459;53.590;10.062;2024-03-29T14:41:44;11.00;99.90
14737;DHT22;7459;53.590;10.062;2024-03-29T14:44:12;11.00;99.90
14737;DHT22;7459;53.590;10.062;2024-03-29T14:46:38;11.00;99.90
14737;DHT22;7459;53.590;10.062;2024-03-29T14:49:04;11.00;99.90
14737;DHT22;7459;53.590;10.062;2024-03-29T14:51:32;11.10;99.90
14737;DHT22;7459;53.590;10.062;2024-03-29T14:53:58;11.10;99.90
14737;DHT22;7459;53.590;10.062;2024-03-29T14:56:24;11.20;99.90
14737;DHT22;7459;53.590;10.062;2024-03-29T14:58:50;11.10;99.90
14737;DHT22;7459;53.590;10.062;2024-03-29T15:01:16;11.20;99.90
14737;DHT22;7459;53.590;10.062;2024-03-29T15:03:42;11.30;99.90
14737;DHT22;7459;53.590;10.062;2024-03-29T15:06:07;11.30;99.90
14737;DHT22;7459;53.590;10.062;2024-03-29T15:08:33;11.30;99.90
14737;DHT22;7459;53.590;10.062;2024-03-29T15:11:01;11.30;99.90
14737;DHT22;7459;53.590;10.062;2024-03-29T15:13:28;11.40;99.90
14737;DHT22;7459;53.590;10.062;2024-03-29T15:15:58;11.70;99.90
14737;DHT22;7459;53.590;10.062;2024-03-29T15:18:25;11.70;99.90
14737;DHT22;7459;53.590;10.062;2024-03-29T15:20:59;11.70;99.90
14737;DHT22;7459;53.590;10.062;2024-03-29T15:23:27;11.60;99.90
14737;DHT22;7459;53.590;10.062;2024-03-29T15:25:59;11.70;99.90
14737;DHT22;7459;53.590;10.062;2024-03-29T15:28:26;11.70;99.90
14737;DHT22;7459;53.590;10.062;2024-03-29T15:33:42;11.70;99.90
14737;DHT22;7459;53.590;10.062;2024-03-29T15:36:07;11.70;99.90
14737;DHT22;7459;53.590;10.062;2024-03-29T15:38:36;11.60;99.90
14737;DHT22;7459;53.590;10.062;2024-03-29T15:41:02;11.60;99.90
14737;DHT22;7459;53.590;10.062;2024-03-29T15:43:30;11.70;99.90
14737;DHT22;7459;53.590;10.062;2024-03-29T15:45:56;11.60;99.90
14737;DHT22;7459;53.590;10.062;2024-03-29T15:48:24;11.60;99.90
14737;DHT22;7459;53.590;10.062;2024-03-29T15:50:51;11.60;99.90
14737;DHT22;7459;53.590;10.062;2024-03-29T15:53:17;11.60;99.90
14737;DHT22;7459;53.590;10.062;2024-03-29T15:55:43;11.50;99.90
14737;DHT22;7459;53.590;10.062;2024-03-29T15:58:13;11.50;99.90
14737;DHT22;7459;53.590;10.062;2024-03-29T16:00:39;11.50;99.90